createdAt,value
2019-05-13T00:00:34.093Z,3.60
2019-05-13T00:03:21.287Z,5.07
2019-05-13T00:06:08.767Z,7.73
2019-05-13T00:08:56.185Z,8.07
2019-05-13T00:11:43.848Z,6.73
2019-05-13T00:14:34.374Z,7.13
2019-05-13T00:17:23.555Z,5.23
2019-05-13T00:20:10.495Z,7.67
2019-05-13T00:22:58.069Z,6.73
2019-05-13T00:25:45.294Z,7.27
2019-05-13T00:28:34.264Z,6.70
2019-05-13T00:31:24.148Z,12.43
2019-05-13T00:34:11.060Z,6.80
2019-05-13T00:37:08.774Z,13.80
2019-05-13T00:39:47.982Z,6.80
2019-05-13T00:42:37.830Z,7.07
2019-05-13T00:45:25.761Z,8.47
2019-05-13T00:48:14.264Z,9.20
2019-05-13T00:51:03.786Z,7.60
2019-05-13T00:53:53.644Z,8.57
2019-05-13T00:56:40.684Z,9.13
2019-05-13T00:59:27.781Z,8.63
2019-05-13T01:02:15.228Z,7.33
2019-05-13T01:05:04.293Z,9.77
2019-05-13T01:07:53.676Z,9.67
2019-05-13T01:10:40.739Z,6.47
2019-05-13T01:13:28.242Z,13.87
2019-05-13T01:16:15.962Z,9.00
2019-05-13T01:19:04.307Z,9.43
2019-05-13T01:21:54.017Z,13.73
2019-05-13T01:24:40.842Z,10.30
2019-05-13T01:27:28.158Z,9.50
2019-05-13T01:30:16.547Z,11.67
2019-05-13T01:33:04.612Z,8.30
2019-05-13T01:35:53.825Z,11.83
2019-05-13T01:38:43.589Z,7.40
2019-05-13T01:41:33.375Z,13.30
2019-05-13T01:44:20.606Z,12.60
2019-05-13T01:47:07.872Z,9.03
2019-05-13T01:49:55.281Z,7.23
2019-05-13T01:52:44.553Z,7.60
2019-05-13T01:55:33.976Z,11.90
2019-05-13T01:58:20.664Z,11.33
2019-05-13T02:01:08.097Z,11.40
2019-05-13T02:03:55.358Z,8.77
2019-05-13T02:06:44.339Z,12.93
2019-05-13T02:09:33.681Z,15.83
2019-05-13T02:12:24.032Z,10.70
2019-05-13T02:15:10.768Z,8.87
2019-05-13T02:18:00.455Z,9.53
2019-05-13T02:20:48.082Z,14.17
2019-05-13T02:23:35.385Z,11.30
2019-05-13T02:26:24.066Z,12.90
2019-05-13T02:29:14.148Z,9.93
2019-05-13T02:32:02.777Z,12.10
2019-05-13T02:34:53.078Z,10.03
2019-05-13T02:37:42.958Z,15.27
2019-05-13T02:40:28.329Z,10.13
2019-05-13T02:43:16.299Z,11.23
2019-05-13T02:46:04.672Z,11.80
2019-05-13T02:48:52.903Z,9.60
2019-05-13T02:51:42.983Z,9.07
2019-05-13T02:54:29.449Z,11.90
2019-05-13T02:57:16.829Z,9.27
2019-05-13T03:00:05.116Z,8.77
2019-05-13T03:02:52.739Z,9.03
2019-05-13T03:05:42.839Z,9.57
2019-05-13T03:08:40.854Z,11.70
2019-05-13T03:11:22.525Z,12.13
2019-05-13T03:14:08.630Z,9.33
2019-05-13T03:17:24.007Z,9.90
2019-05-13T03:20:16.406Z,10.97
2019-05-13T03:23:03.103Z,10.90
2019-05-13T03:25:53.292Z,10.77
2019-05-13T03:28:38.787Z,10.17
2019-05-13T03:31:27.022Z,9.13
2019-05-13T03:34:16.472Z,9.93
2019-05-13T03:37:07.082Z,9.03
2019-05-13T03:39:55.519Z,7.73
2019-05-13T03:42:44.090Z,13.33
2019-05-13T03:45:32.695Z,9.57
2019-05-13T03:48:23.557Z,10.07
2019-05-13T03:51:13.214Z,9.20
2019-05-13T03:54:03.173Z,12.47
2019-05-13T03:56:52.781Z,9.43
2019-05-13T03:59:43.322Z,10.00
2019-05-13T04:02:32.539Z,13.20
2019-05-13T04:05:22.841Z,13.43
2019-05-13T04:08:09.311Z,9.93
2019-05-13T04:10:56.877Z,9.23
2019-05-13T04:13:45.776Z,8.17
2019-05-13T04:16:33.286Z,9.07
2019-05-13T04:19:23.184Z,11.57
2019-05-13T04:22:12.936Z,9.23
2019-05-13T04:25:02.495Z,9.30
2019-05-13T04:27:52.208Z,9.40
2019-05-13T04:30:38.203Z,12.60
2019-05-13T04:33:25.956Z,10.77
2019-05-13T04:36:13.968Z,7.13
2019-05-13T04:39:03.231Z,6.97
2019-05-13T04:41:52.921Z,9.00
2019-05-13T04:44:42.796Z,7.17
2019-05-13T04:47:32.820Z,7.17
2019-05-13T04:50:18.523Z,7.70
2019-05-13T04:53:05.996Z,7.87
2019-05-13T04:55:53.095Z,8.97
2019-05-13T04:58:42.843Z,7.03
2019-05-13T05:01:53.207Z,6.80
2019-05-13T05:04:43.685Z,6.50
2019-05-13T05:07:42.192Z,6.03
2019-05-13T05:11:22.225Z,6.33
2019-05-13T05:14:24.126Z,7.70
2019-05-13T05:18:02.600Z,5.80
2019-05-13T05:21:01.459Z,5.20
2019-05-13T05:24:12.956Z,6.37
2019-05-13T05:27:27.320Z,8.03
2019-05-13T05:30:55.071Z,5.57
2019-05-13T05:34:06.786Z,5.57
2019-05-13T05:37:23.094Z,11.63
2019-05-13T05:40:12.319Z,5.73
2019-05-13T05:43:02.526Z,6.10
2019-05-13T05:45:51.623Z,6.30
2019-05-13T05:48:42.005Z,6.20
2019-05-13T05:51:31.463Z,6.77
2019-05-13T05:54:21.864Z,8.63
2019-05-13T05:57:12.111Z,7.57
2019-05-13T06:00:02.298Z,12.13
2019-05-13T06:02:53.140Z,5.17
2019-05-13T06:05:41.904Z,8.20
2019-05-13T06:08:29.181Z,7.03
2019-05-13T06:11:16.958Z,9.23
2019-05-13T06:14:04.430Z,6.67
2019-05-13T06:16:52.016Z,7.93
2019-05-13T06:19:41.857Z,6.77
2019-05-13T06:22:31.924Z,11.37
2019-05-13T06:25:22.991Z,6.03
2019-05-13T06:28:07.800Z,6.90
2019-05-13T06:30:55.387Z,7.03
2019-05-13T06:33:42.463Z,5.30
2019-05-13T06:36:31.628Z,4.53
2019-05-13T06:39:19.272Z,7.57
2019-05-13T06:42:06.903Z,4.53
2019-05-13T06:44:54.597Z,9.00
2019-05-13T06:47:42.094Z,8.47
2019-05-13T06:50:29.609Z,5.77
2019-05-13T06:53:17.020Z,8.47
2019-05-13T06:56:04.722Z,10.10
2019-05-13T06:58:52.816Z,4.73
2019-05-13T07:01:42.207Z,7.17
2019-05-13T07:04:28.760Z,7.07
2019-05-13T07:07:17.441Z,9.17
2019-05-13T07:10:05.824Z,10.07
2019-05-13T07:12:52.912Z,7.77
2019-05-13T07:15:41.670Z,9.33
2019-05-13T07:18:29.502Z,5.03
2019-05-13T07:21:16.703Z,8.77
2019-05-13T07:24:04.453Z,7.30
2019-05-13T07:26:52.438Z,6.00
2019-05-13T07:29:42.189Z,9.67
2019-05-13T07:32:31.299Z,8.57
2019-05-13T07:35:17.813Z,6.00
2019-05-13T07:38:05.437Z,6.03
2019-05-13T07:41:04.529Z,7.60
2019-05-13T07:43:52.165Z,8.73
2019-05-13T07:46:39.586Z,7.13
2019-05-13T07:49:26.925Z,6.03
2019-05-13T07:52:14.251Z,6.00
2019-05-13T07:55:01.953Z,6.87
2019-05-13T07:57:51.364Z,6.17
2019-05-13T08:00:38.529Z,6.50
2019-05-13T08:03:26.175Z,7.00
2019-05-13T08:06:13.692Z,11.97
2019-05-13T08:09:01.873Z,6.03
2019-05-13T08:12:02.293Z,3.43
2019-05-13T08:14:43.282Z,4.67
2019-05-13T08:17:28.658Z,5.00
2019-05-13T08:20:16.446Z,8.43
2019-05-13T08:23:04.119Z,6.03
2019-05-13T08:25:52.208Z,7.47
2019-05-13T08:28:53.902Z,4.77
2019-05-13T08:31:28.803Z,7.00
2019-05-13T08:34:16.091Z,5.60
2019-05-13T08:37:03.813Z,5.07
2019-05-13T08:39:52.155Z,4.33
2019-05-13T08:42:41.576Z,5.40
2019-05-13T08:45:31.507Z,8.00
2019-05-13T08:48:22.033Z,4.23
2019-05-13T08:51:11.560Z,5.90
2019-05-13T08:53:58.118Z,6.77
2019-05-13T08:56:45.774Z,5.13
2019-05-13T08:59:32.878Z,5.37
2019-05-13T09:02:22.234Z,5.57
2019-05-13T09:05:12.060Z,3.53
2019-05-13T09:08:01.319Z,7.73
2019-05-13T09:10:49.163Z,7.60
2019-05-13T09:13:36.708Z,7.77
2019-05-13T09:16:24.329Z,3.00
2019-05-13T09:19:15.833Z,7.30
2019-05-13T09:22:02.911Z,5.63
2019-05-13T09:24:52.824Z,5.97
2019-05-13T09:27:39.092Z,3.90
2019-05-13T09:30:27.423Z,4.07
2019-05-13T09:33:15.635Z,5.43
2019-05-13T09:36:03.158Z,6.50
2019-05-13T09:38:52.459Z,3.50
2019-05-13T09:41:43.681Z,6.47
2019-05-13T09:44:28.907Z,7.13
2019-05-13T09:47:16.359Z,3.43
2019-05-13T09:50:04.795Z,5.07
2019-05-13T09:52:52.309Z,6.20
2019-05-13T09:55:41.460Z,9.57
2019-05-13T09:58:32.164Z,6.67
2019-05-13T10:01:17.829Z,2.87
2019-05-13T10:04:05.322Z,5.03
2019-05-13T10:06:53.051Z,6.47
2019-05-13T10:09:42.566Z,7.50
2019-05-13T10:12:31.758Z,4.80
2019-05-13T10:15:18.248Z,4.10
2019-05-13T10:18:05.851Z,3.77
2019-05-13T10:20:58.620Z,4.80
2019-05-13T10:23:44.822Z,3.30
2019-05-13T10:26:32.292Z,2.73
2019-05-13T10:29:22.312Z,3.27
2019-05-13T10:32:09.066Z,5.63
2019-05-13T10:34:57.433Z,6.30
2019-05-13T10:37:45.677Z,3.53
2019-05-13T10:40:33.132Z,2.17
2019-05-13T10:43:30.911Z,4.30
2019-05-13T10:46:12.781Z,2.20
2019-05-13T10:49:01.741Z,2.70
2019-05-13T10:51:48.180Z,2.57
2019-05-13T10:54:35.987Z,3.33
2019-05-13T10:57:23.725Z,3.37
2019-05-13T11:00:12.438Z,3.60
2019-05-13T11:03:00.157Z,4.07
2019-05-13T11:05:52.246Z,5.00
2019-05-13T11:08:38.105Z,7.67
2019-05-13T11:11:26.005Z,6.17
2019-05-13T11:14:15.742Z,1.77
2019-05-13T11:17:07.813Z,5.50
2019-05-13T11:19:55.565Z,4.03
2019-05-13T11:22:43.217Z,1.90
2019-05-13T11:25:32.388Z,5.70
2019-05-13T11:28:20.381Z,3.37
2019-05-13T11:31:07.818Z,2.80
2019-05-13T11:33:55.294Z,3.23
2019-05-13T11:36:43.418Z,3.10
2019-05-13T11:39:32.557Z,4.00
2019-05-13T11:42:22.722Z,5.73
2019-05-13T11:45:11.784Z,3.63
2019-05-13T11:48:02.229Z,2.97
2019-05-13T11:50:51.423Z,2.80
2019-05-13T11:53:38.601Z,2.80
2019-05-13T11:56:26.099Z,2.07
2019-05-13T11:59:14.301Z,2.30
2019-05-13T12:02:04.423Z,2.00
2019-05-13T12:04:53.592Z,6.03
2019-05-13T12:07:42.075Z,1.73
2019-05-13T12:10:32.472Z,6.73
2019-05-13T12:13:18.508Z,5.50
2019-05-13T12:16:06.273Z,6.63
2019-05-13T12:18:53.779Z,2.63
2019-05-13T12:21:45.874Z,5.27
2019-05-13T12:24:30.230Z,5.00
2019-05-13T12:27:17.806Z,2.30
2019-05-13T12:30:05.511Z,2.23
2019-05-13T12:32:53.186Z,4.90
2019-05-13T12:35:42.855Z,5.03
2019-05-13T12:38:33.066Z,3.60
2019-05-13T12:41:22.768Z,4.87
2019-05-13T12:44:09.114Z,3.77
2019-05-13T12:46:56.723Z,5.53
2019-05-13T12:49:44.264Z,8.03
2019-05-13T12:52:32.691Z,6.00
2019-05-13T12:55:21.801Z,4.13
2019-05-13T12:58:12.072Z,4.77
2019-05-13T13:01:01.296Z,3.27
2019-05-13T13:03:48.064Z,2.07
2019-05-13T13:09:24.737Z,5.03
2019-05-13T13:12:12.775Z,6.07
2019-05-13T13:15:20.438Z,5.63
2019-05-13T13:17:53.636Z,2.63
2019-05-13T13:20:42.150Z,6.43
2019-05-13T13:23:28.095Z,6.40
2019-05-13T13:26:16.434Z,4.60
2019-05-13T13:29:04.206Z,5.90
2019-05-13T13:31:55.328Z,7.33
2019-05-13T13:34:43.997Z,4.10
2019-05-13T13:37:33.776Z,4.53
2019-05-13T13:40:25.970Z,5.93
2019-05-13T13:43:08.518Z,8.60
2019-05-13T13:48:45.509Z,8.33
2019-05-13T13:51:34.382Z,6.10
2019-05-13T13:54:22.665Z,6.83
2019-05-13T13:57:13.388Z,5.50
2019-05-13T14:02:53.759Z,5.90
2019-05-13T14:05:39.066Z,4.77
2019-05-13T14:06:39.634Z,3.93
2019-05-13T14:07:12.890Z,6.90
2019-05-13T14:08:26.640Z,4.10
2019-05-13T14:11:14.162Z,3.73
2019-05-13T14:14:02.279Z,4.83
2019-05-13T14:16:51.873Z,5.37
2019-05-13T14:19:38.765Z,7.57
2019-05-13T14:22:26.069Z,7.00
2019-05-13T14:25:13.485Z,4.70
2019-05-13T14:28:01.099Z,2.23
2019-05-13T14:30:51.255Z,4.03
2019-05-13T14:33:37.883Z,3.57
2019-05-13T14:36:25.469Z,7.07
2019-05-13T14:39:12.841Z,4.80
2019-05-13T14:42:02.150Z,3.90
2019-05-13T14:44:51.881Z,3.27
2019-05-13T14:47:38.746Z,5.20
2019-05-13T14:50:25.825Z,7.17
2019-05-13T14:53:13.275Z,2.53
2019-05-13T14:56:03.035Z,4.37
2019-05-13T14:58:52.027Z,6.80
2019-05-13T15:01:41.333Z,8.83
2019-05-13T15:04:28.254Z,7.30
2019-05-13T15:07:15.974Z,4.60
2019-05-13T15:10:03.993Z,5.50
2019-05-13T15:12:52.550Z,4.20
2019-05-13T15:15:42.182Z,8.30
2019-05-13T15:18:32.268Z,5.67
2019-05-13T15:21:21.239Z,3.13
2019-05-13T15:24:08.173Z,4.53
2019-05-13T15:26:55.718Z,9.87
2019-05-13T15:29:43.415Z,4.70
2019-05-13T15:32:32.602Z,5.73
2019-05-13T15:35:19.854Z,7.60
2019-05-13T15:38:07.993Z,5.07
2019-05-13T15:40:55.744Z,3.10
2019-05-13T15:43:43.221Z,2.90
2019-05-13T15:46:32.312Z,7.40
2019-05-13T15:49:22.086Z,4.10
2019-05-13T15:52:11.751Z,2.80
2019-05-13T15:54:58.510Z,4.50
2019-05-13T15:57:46.351Z,3.70
2019-05-13T16:00:34.034Z,2.87
2019-05-13T16:03:21.565Z,4.33
2019-05-13T16:06:09.084Z,4.93
2019-05-13T16:08:56.872Z,4.33
2019-05-13T16:11:44.930Z,5.43
2019-05-13T16:14:32.174Z,3.10
2019-05-13T16:17:30.639Z,2.50
2019-05-13T16:20:08.972Z,3.77
2019-05-13T16:22:57.966Z,3.40
2019-05-13T16:25:47.613Z,6.83
2019-05-13T16:28:35.217Z,6.10
2019-05-13T16:31:22.646Z,5.17
2019-05-13T16:34:11.148Z,5.73
2019-05-13T16:37:01.643Z,6.00
2019-05-13T16:39:48.549Z,3.33
2019-05-13T16:42:35.933Z,4.90
2019-05-13T16:45:23.748Z,3.87
2019-05-13T16:48:12.329Z,3.83
2019-05-13T16:51:00.535Z,4.63
2019-05-13T16:53:52.316Z,3.77
2019-05-13T16:56:42.030Z,4.00
2019-05-13T16:59:29.042Z,3.37
2019-05-13T17:02:17.262Z,4.03
2019-05-13T17:05:05.318Z,5.23
2019-05-13T17:07:52.617Z,2.47
2019-05-13T17:10:41.882Z,4.10
2019-05-13T17:13:28.663Z,2.73
2019-05-13T17:16:15.783Z,5.17
2019-05-13T17:19:03.154Z,4.50
2019-05-13T17:21:52.013Z,2.33
2019-05-13T17:24:42.477Z,3.67
2019-05-13T17:27:28.885Z,4.30
2019-05-13T17:30:16.977Z,3.20
2019-05-13T17:33:04.492Z,5.50
2019-05-13T17:35:52.024Z,2.87
2019-05-13T17:38:39.365Z,5.23
2019-05-13T17:41:26.899Z,6.03
2019-05-13T17:44:14.331Z,3.17
2019-05-13T17:47:02.169Z,3.17
2019-05-13T17:49:52.167Z,4.73
2019-05-13T17:52:39.106Z,6.73
2019-05-13T17:55:26.839Z,3.20
2019-05-13T17:58:14.717Z,3.13
2019-05-13T18:01:02.422Z,3.20
2019-05-13T18:03:51.749Z,3.03
2019-05-13T18:06:41.713Z,3.50
2019-05-13T18:09:31.541Z,5.03
2019-05-13T18:12:18.364Z,5.10
2019-05-13T18:15:06.722Z,2.93
2019-05-13T18:17:53.817Z,4.90
2019-05-13T18:20:41.654Z,4.53
2019-05-13T18:23:28.960Z,3.77
2019-05-13T18:26:17.045Z,7.30
2019-05-13T18:29:04.740Z,4.30
2019-05-13T18:31:53.340Z,5.60
2019-05-13T18:34:41.675Z,5.43
2019-05-13T18:37:31.383Z,4.47
2019-05-13T18:40:18.913Z,2.77
2019-05-13T18:43:06.307Z,2.83
2019-05-13T18:45:54.789Z,3.03
2019-05-13T18:48:57.408Z,3.87
2019-05-13T18:51:31.673Z,4.40
2019-05-13T18:54:18.924Z,3.60
2019-05-13T18:57:06.582Z,1.70
2019-05-13T18:59:53.956Z,3.87
2019-05-13T19:02:41.632Z,8.60
2019-05-13T19:05:31.574Z,3.57
2019-05-13T19:08:18.455Z,4.80
2019-05-13T19:11:08.494Z,7.83
2019-05-13T19:14:02.717Z,2.40
2019-05-13T19:16:50.129Z,6.87
2019-05-13T19:19:37.742Z,4.67
2019-05-13T19:22:25.345Z,2.23
2019-05-13T19:25:13.241Z,4.23
2019-05-13T19:28:02.361Z,3.30
2019-05-13T19:30:51.556Z,5.03
2019-05-13T19:33:41.622Z,4.80
2019-05-13T19:36:30.640Z,3.00
2019-05-13T19:39:18.368Z,2.80
2019-05-13T19:42:06.241Z,3.80
2019-05-13T19:44:53.580Z,3.60
2019-05-13T19:47:43.896Z,4.57
2019-05-13T19:50:32.385Z,2.43
2019-05-13T19:53:21.842Z,4.57
2019-05-13T19:56:11.776Z,2.97
2019-05-13T19:59:01.366Z,4.27
2019-05-13T20:01:48.136Z,4.80
2019-05-13T20:04:35.606Z,5.93
2019-05-13T20:07:22.722Z,4.63
2019-05-13T20:10:11.870Z,4.17
2019-05-13T20:13:01.690Z,3.83
2019-05-13T20:15:48.801Z,2.43
2019-05-13T20:18:36.468Z,2.67
2019-05-13T20:21:23.561Z,3.77
2019-05-13T20:24:11.896Z,5.97
2019-05-13T20:27:01.355Z,5.27
2019-05-13T20:29:48.513Z,4.13
2019-05-13T20:32:36.057Z,5.43
2019-05-13T20:35:23.250Z,4.07
2019-05-13T20:38:11.643Z,4.40
2019-05-13T20:41:01.103Z,2.90
2019-05-13T20:43:48.102Z,6.83
2019-05-13T20:46:38.757Z,8.80
2019-05-13T20:49:27.747Z,5.07
2019-05-13T20:52:15.653Z,3.40
2019-05-13T20:55:03.568Z,5.00
2019-05-13T20:57:53.104Z,5.17
2019-05-13T21:00:42.376Z,3.80
2019-05-13T21:03:41.834Z,5.87
2019-05-13T21:06:32.063Z,4.53
2019-05-13T21:09:19.608Z,4.13
2019-05-13T21:12:11.880Z,4.63
2019-05-13T21:15:05.334Z,7.60
2019-05-13T21:17:54.668Z,6.77
2019-05-13T21:20:44.324Z,4.07
2019-05-13T21:23:36.050Z,6.73
2019-05-13T21:26:23.636Z,4.40
2019-05-13T21:29:12.034Z,6.50
2019-05-13T21:32:03.729Z,10.60
2019-05-13T21:34:51.724Z,6.40
2019-05-13T21:37:40.676Z,3.90
2019-05-13T21:40:31.974Z,7.20
2019-05-13T21:43:18.912Z,6.40
2019-05-13T21:46:08.823Z,3.90
2019-05-13T21:48:58.230Z,4.17
2019-05-13T21:51:52.876Z,3.27
2019-05-13T21:54:42.210Z,5.67
2019-05-13T21:57:33.046Z,9.20
2019-05-13T22:00:25.097Z,6.03
2019-05-13T22:03:14.788Z,4.77
2019-05-13T22:06:18.536Z,6.50
2019-05-13T22:09:11.512Z,3.73
2019-05-13T22:11:58.532Z,4.07
2019-05-13T22:14:46.164Z,6.77
2019-05-13T22:17:33.197Z,3.27
2019-05-13T22:20:21.330Z,4.10
2019-05-13T22:23:11.788Z,6.30
2019-05-13T22:25:58.548Z,4.70
2019-05-13T22:28:45.972Z,5.67
2019-05-13T22:31:33.331Z,6.23
2019-05-13T22:34:21.163Z,3.97
2019-05-13T22:37:11.486Z,3.13
2019-05-13T22:39:57.879Z,5.37
2019-05-13T22:42:45.404Z,5.20
2019-05-13T22:45:33.101Z,4.13
2019-05-13T22:48:22.316Z,6.47
2019-05-13T22:51:11.808Z,2.30
2019-05-13T22:53:59.343Z,6.50
2019-05-13T22:56:46.807Z,10.53
2019-05-13T22:59:33.872Z,6.27
2019-05-13T23:02:22.113Z,5.43
2019-05-13T23:05:11.277Z,5.57
2019-05-13T23:07:58.840Z,7.83
2019-05-13T23:10:46.206Z,5.53
2019-05-13T23:13:33.546Z,4.90
2019-05-13T23:16:22.206Z,7.43
2019-05-13T23:19:11.142Z,2.50
2019-05-13T23:22:01.609Z,5.23
2019-05-13T23:24:48.623Z,4.90
2019-05-13T23:27:36.187Z,5.97
2019-05-13T23:30:23.939Z,4.93
2019-05-13T23:33:11.739Z,6.03
2019-05-13T23:36:01.356Z,6.77
2019-05-13T23:38:48.965Z,6.00
2019-05-13T23:41:36.576Z,4.50
2019-05-13T23:44:27.994Z,4.00
2019-05-13T23:47:13.472Z,5.17
2019-05-13T23:50:02.012Z,3.17
2019-05-13T23:52:51.191Z,6.40
2019-05-13T23:55:38.592Z,6.67
2019-05-13T23:58:26.188Z,6.73
